sensor_id;sensor_type;location;lat;lon;timestamp;P1;P2;P0
49434;PMS5003;35306;53.458;-1.990;2022-07-01T00:02:18;5;5;
49434;PMS5003;35306;53.458;-1.990;2022-07-01T00:04:46;3;3;
49434;PMS5003;35306;53.458;-1.990;2022-07-01T00:07:13;3;3;
49434;PMS5003;35306;53.458;-1.990;2022-07-01T00:09:41;3;3;
49434;PMS5003;35306;53.458;-1.990;2022-07-01T00:12:09;4;4;
49434;PMS5003;35306;53.458;-1.990;2022-07-01T00:14:37;3;3;
49434;PMS5003;35306;53.458;-1.990;2022-07-01T00:17:06;3;3;
49434;PMS5003;35306;53.458;-1.990;2022-07-01T00:19:33;3;1;
49434;PMS5003;35306;53.458;-1.990;2022-07-01T00:22:01;4;4;
49434;PMS5003;35306;53.458;-1.990;2022-07-01T00:24:29;4;4;
49434;PMS5003;35306;53.458;-1.990;2022-07-01T00:26:57;4;3;
49434;PMS5003;35306;53.458;-1.990;2022-07-01T00:29:25;4;4;
49434;PMS5003;35306;53.458;-1.990;2022-07-01T00:31:52;3;3;
49434;PMS5003;35306;53.458;-1.990;2022-07-01T00:34:20;7;4;
49434;PMS5003;35306;53.458;-1.990;2022-07-01T00:36:48;2;2;
49434;PMS5003;35306;53.458;-1.990;2022-07-01T00:39:16;3;3;
49434;PMS5003;35306;53.458;-1.990;2022-07-01T00:41:44;3;3;
49434;PMS5003;35306;53.458;-1.990;2022-07-01T00:44:15;3;3;
49434;PMS5003;35306;53.458;-1.990;2022-07-01T00:46:44;3;3;
49434;PMS5003;35306;53.458;-1.990;2022-07-01T00:49:12;4;4;
49434;PMS5003;35306;53.458;-1.990;2022-07-01T00:51:41;3;3;
49434;PMS5003;35306;53.458;-1.990;2022-07-01T00:54:09;4;4;
49434;PMS5003;35306;53.458;-1.990;2022-07-01T00:56:38;6;3;
49434;PMS5003;35306;53.458;-1.990;2022-07-01T00:59:05;1;1;
49434;PMS5003;35306;53.458;-1.990;2022-07-01T01:01:34;5;4;
49434;PMS5003;35306;53.458;-1.990;2022-07-01T01:04:02;5;5;
49434;PMS5003;35306;53.458;-1.990;2022-07-01T01:06:30;3;3;
49434;PMS5003;35306;53.458;-1.990;2022-07-01T01:08:58;3;3;
49434;PMS5003;35306;53.458;-1.990;2022-07-01T01:11:26;4;4;
49434;PMS5003;35306;53.458;-1.990;2022-07-01T01:13:54;5;5;
49434;PMS5003;35306;53.458;-1.990;2022-07-01T01:16:22;6;4;
49434;PMS5003;35306;53.458;-1.990;2022-07-01T01:18:50;3;3;
49434;PMS5003;35306;53.458;-1.990;2022-07-01T01:21:19;6;4;
49434;PMS5003;35306;53.458;-1.990;2022-07-01T01:23:47;3;3;
49434;PMS5003;35306;53.458;-1.990;2022-07-01T01:26:16;4;4;
49434;PMS5003;35306;53.458;-1.990;2022-07-01T01:28:45;4;4;
49434;PMS5003;35306;53.458;-1.990;2022-07-01T01:31:14;4;4;
49434;PMS5003;35306;53.458;-1.990;2022-07-01T01:33:42;2;2;
49434;PMS5003;35306;53.458;-1.990;2022-07-01T01:36:11;4;4;
49434;PMS5003;35306;53.458;-1.990;2022-07-01T01:38:38;3;3;
49434;PMS5003;35306;53.458;-1.990;2022-07-01T01:41:07;5;5;
49434;PMS5003;35306;53.458;-1.990;2022-07-01T01:43:35;4;4;
49434;PMS5003;35306;53.458;-1.990;2022-07-01T01:46:02;6;6;
49434;PMS5003;35306;53.458;-1.990;2022-07-01T01:48:31;5;5;
49434;PMS5003;35306;53.458;-1.990;2022-07-01T01:50:58;5;5;
49434;PMS5003;35306;53.458;-1.990;2022-07-01T01:53:26;5;5;
49434;PMS5003;35306;53.458;-1.990;2022-07-01T01:55:54;7;7;
49434;PMS5003;35306;53.458;-1.990;2022-07-01T01:58:21;9;8;
49434;PMS5003;35306;53.458;-1.990;2022-07-01T02:00:50;7;6;
49434;PMS5003;35306;53.458;-1.990;2022-07-01T02:03:18;5;5;
49434;PMS5003;35306;53.458;-1.990;2022-07-01T02:05:45;6;5;
49434;PMS5003;35306;53.458;-1.990;2022-07-01T02:08:13;5;5;
49434;PMS5003;35306;53.458;-1.990;2022-07-01T02:10:41;4;4;
49434;PMS5003;35306;53.458;-1.990;2022-07-01T02:13:08;6;4;
49434;PMS5003;35306;53.458;-1.990;2022-07-01T02:15:36;5;5;
49434;PMS5003;35306;53.458;-1.990;2022-07-01T02:18:04;4;4;
49434;PMS5003;35306;53.458;-1.990;2022-07-01T02:20:31;7;7;
49434;PMS5003;35306;53.458;-1.990;2022-07-01T02:22:59;11;8;
49434;PMS5003;35306;53.458;-1.990;2022-07-01T02:25:27;7;6;
49434;PMS5003;35306;53.458;-1.990;2022-07-01T02:27:55;6;5;
49434;PMS5003;35306;53.458;-1.990;2022-07-01T02:30:22;7;7;
49434;PMS5003;35306;53.458;-1.990;2022-07-01T02:32:50;6;6;
49434;PMS5003;35306;53.458;-1.990;2022-07-01T02:35:18;10;9;
49434;PMS5003;35306;53.458;-1.990;2022-07-01T02:37:47;11;9;
49434;PMS5003;35306;53.458;-1.990;2022-07-01T02:40:15;4;4;
49434;PMS5003;35306;53.458;-1.990;2022-07-01T02:42:43;9;8;
49434;PMS5003;35306;53.458;-1.990;2022-07-01T02:45:11;9;8;
49434;PMS5003;35306;53.458;-1.990;2022-07-01T02:47:41;9;9;
49434;PMS5003;35306;53.458;-1.990;2022-07-01T02:50:10;10;9;
49434;PMS5003;35306;53.458;-1.990;2022-07-01T02:52:41;8;8;
49434;PMS5003;35306;53.458;-1.990;2022-07-01T02:55:10;10;10;
49434;PMS5003;35306;53.458;-1.990;2022-07-01T02:57:41;14;13;
49434;PMS5003;35306;53.458;-1.990;2022-07-01T03:00:10;13;10;
49434;PMS5003;35306;53.458;-1.990;2022-07-01T03:02:45;10;10;
49434;PMS5003;35306;53.458;-1.990;2022-07-01T03:05:13;11;11;
49434;PMS5003;35306;53.458;-1.990;2022-07-01T03:07:41;16;11;
49434;PMS5003;35306;53.458;-1.990;2022-07-01T03:10:10;14;14;
49434;PMS5003;35306;53.458;-1.990;2022-07-01T03:12:38;12;11;
49434;PMS5003;35306;53.458;-1.990;2022-07-01T03:15:07;15;13;
49434;PMS5003;35306;53.458;-1.990;2022-07-01T03:17:36;13;11;
49434;PMS5003;35306;53.458;-1.990;2022-07-01T03:20:06;11;10;
49434;PMS5003;35306;53.458;-1.990;2022-07-01T03:22:36;12;9;
49434;PMS5003;35306;53.458;-1.990;2022-07-01T03:25:05;12;11;
49434;PMS5003;35306;53.458;-1.990;2022-07-01T03:27:34;15;13;
49434;PMS5003;35306;53.458;-1.990;2022-07-01T03:30:03;14;12;
49434;PMS5003;35306;53.458;-1.990;2022-07-01T03:32:33;12;12;
49434;PMS5003;35306;53.458;-1.990;2022-07-01T03:35:01;14;10;
49434;PMS5003;35306;53.458;-1.990;2022-07-01T03:37:29;14;11;
49434;PMS5003;35306;53.458;-1.990;2022-07-01T03:39:57;16;13;
49434;PMS5003;35306;53.458;-1.990;2022-07-01T03:42:25;15;13;
49434;PMS5003;35306;53.458;-1.990;2022-07-01T03:44:53;14;13;
49434;PMS5003;35306;53.458;-1.990;2022-07-01T03:47:21;13;12;
49434;PMS5003;35306;53.458;-1.990;2022-07-01T03:49:48;12;12;
49434;PMS5003;35306;53.458;-1.990;2022-07-01T03:52:16;16;15;
49434;PMS5003;35306;53.458;-1.990;2022-07-01T03:54:44;14;12;
49434;PMS5003;35306;53.458;-1.990;2022-07-01T03:57:12;10;10;
49434;PMS5003;35306;53.458;-1.990;2022-07-01T03:59:45;13;9;
49434;PMS5003;35306;53.458;-1.990;2022-07-01T04:02:17;14;12;
49434;PMS5003;35306;53.458;-1.990;2022-07-01T04:04:45;19;15;
49434;PMS5003;35306;53.458;-1.990;2022-07-01T04:07:12;15;14;
49434;PMS5003;35306;53.458;-1.990;2022-07-01T04:09:40;17;17;
49434;PMS5003;35306;53.458;-1.990;2022-07-01T04:12:08;21;19;
49434;PMS5003;35306;53.458;-1.990;2022-07-01T04:14:36;16;15;
49434;PMS5003;35306;53.458;-1.990;2022-07-01T04:17:04;16;15;
49434;PMS5003;35306;53.458;-1.990;2022-07-01T04:19:31;17;14;
49434;PMS5003;35306;53.458;-1.990;2022-07-01T04:21:59;19;18;
49434;PMS5003;35306;53.458;-1.990;2022-07-01T04:24:26;20;16;
49434;PMS5003;35306;53.458;-1.990;2022-07-01T04:26:54;20;17;
49434;PMS5003;35306;53.458;-1.990;2022-07-01T04:29:21;19;16;
49434;PMS5003;35306;53.458;-1.990;2022-07-01T04:31:48;18;17;
49434;PMS5003;35306;53.458;-1.990;2022-07-01T04:34:16;21;16;
49434;PMS5003;35306;53.458;-1.990;2022-07-01T04:36:44;20;17;
49434;PMS5003;35306;53.458;-1.990;2022-07-01T04:39:11;21;14;
49434;PMS5003;35306;53.458;-1.990;2022-07-01T04:41:38;18;18;
49434;PMS5003;35306;53.458;-1.990;2022-07-01T04:44:06;19;17;
49434;PMS5003;35306;53.458;-1.990;2022-07-01T04:46:34;16;16;
49434;PMS5003;35306;53.458;-1.990;2022-07-01T04:49:01;16;13;
49434;PMS5003;35306;53.458;-1.990;2022-07-01T04:51:29;15;13;
49434;PMS5003;35306;53.458;-1.990;2022-07-01T04:53:56;19;13;
49434;PMS5003;35306;53.458;-1.990;2022-07-01T04:56:23;21;19;
49434;PMS5003;35306;53.458;-1.990;2022-07-01T04:58:51;15;14;
49434;PMS5003;35306;53.458;-1.990;2022-07-01T05:01:18;19;17;
49434;PMS5003;35306;53.458;-1.990;2022-07-01T05:03:46;17;17;
49434;PMS5003;35306;53.458;-1.990;2022-07-01T05:06:14;22;18;
49434;PMS5003;35306;53.458;-1.990;2022-07-01T05:08:41;16;16;
49434;PMS5003;35306;53.458;-1.990;2022-07-01T05:11:09;18;16;
49434;PMS5003;35306;53.458;-1.990;2022-07-01T05:13:36;17;15;
49434;PMS5003;35306;53.458;-1.990;2022-07-01T05:16:04;19;17;
49434;PMS5003;35306;53.458;-1.990;2022-07-01T05:18:31;17;17;
49434;PMS5003;35306;53.458;-1.990;2022-07-01T05:20:58;17;14;
49434;PMS5003;35306;53.458;-1.990;2022-07-01T05:23:26;17;17;
49434;PMS5003;35306;53.458;-1.990;2022-07-01T05:25:53;16;16;
49434;PMS5003;35306;53.458;-1.990;2022-07-01T05:28:21;13;13;
49434;PMS5003;35306;53.458;-1.990;2022-07-01T05:30:48;16;16;
49434;PMS5003;35306;53.458;-1.990;2022-07-01T05:33:15;15;14;
49434;PMS5003;35306;53.458;-1.990;2022-07-01T05:35:44;13;10;
49434;PMS5003;35306;53.458;-1.990;2022-07-01T05:38:11;12;12;
49434;PMS5003;35306;53.458;-1.990;2022-07-01T05:40:40;9;9;
49434;PMS5003;35306;53.458;-1.990;2022-07-01T05:43:09;10;7;
49434;PMS5003;35306;53.458;-1.990;2022-07-01T05:45:36;12;10;
49434;PMS5003;35306;53.458;-1.990;2022-07-01T05:48:04;11;7;
49434;PMS5003;35306;53.458;-1.990;2022-07-01T05:50:32;9;8;
49434;PMS5003;35306;53.458;-1.990;2022-07-01T05:53:01;10;10;
49434;PMS5003;35306;53.458;-1.990;2022-07-01T05:55:29;6;6;
49434;PMS5003;35306;53.458;-1.990;2022-07-01T05:57:56;10;6;
49434;PMS5003;35306;53.458;-1.990;2022-07-01T06:00:24;7;7;
49434;PMS5003;35306;53.458;-1.990;2022-07-01T06:02:52;7;6;
49434;PMS5003;35306;53.458;-1.990;2022-07-01T06:05:21;9;9;
49434;PMS5003;35306;53.458;-1.990;2022-07-01T06:07:49;10;10;
49434;PMS5003;35306;53.458;-1.990;2022-07-01T06:10:17;7;7;
49434;PMS5003;35306;53.458;-1.990;2022-07-01T06:12:44;6;5;
49434;PMS5003;35306;53.458;-1.990;2022-07-01T06:15:12;7;7;
49434;PMS5003;35306;53.458;-1.990;2022-07-01T06:17:41;7;7;
49434;PMS5003;35306;53.458;-1.990;2022-07-01T06:20:09;7;4;
49434;PMS5003;35306;53.458;-1.990;2022-07-01T06:22:38;6;5;
49434;PMS5003;35306;53.458;-1.990;2022-07-01T06:25:05;5;5;
49434;PMS5003;35306;53.458;-1.990;2022-07-01T06:27:37;5;5;
49434;PMS5003;35306;53.458;-1.990;2022-07-01T06:30:06;3;3;
49434;PMS5003;35306;53.458;-1.990;2022-07-01T06:32:35;4;4;
49434;PMS5003;35306;53.458;-1.990;2022-07-01T06:35:04;3;3;
49434;PMS5003;35306;53.458;-1.990;2022-07-01T06:37:33;6;4;
49434;PMS5003;35306;53.458;-1.990;2022-07-01T06:40:00;7;5;
49434;PMS5003;35306;53.458;-1.990;2022-07-01T06:42:29;5;5;
49434;PMS5003;35306;53.458;-1.990;2022-07-01T06:44:57;2;2;
49434;PMS5003;35306;53.458;-1.990;2022-07-01T06:47:25;6;5;
49434;PMS5003;35306;53.458;-1.990;2022-07-01T06:49:53;3;3;
49434;PMS5003;35306;53.458;-1.990;2022-07-01T06:52:21;3;3;
49434;PMS5003;35306;53.458;-1.990;2022-07-01T06:54:48;6;6;
49434;PMS5003;35306;53.458;-1.990;2022-07-01T06:57:16;7;7;
49434;PMS5003;35306;53.458;-1.990;2022-07-01T06:59:44;6;6;
49434;PMS5003;35306;53.458;-1.990;2022-07-01T07:02:11;4;4;
49434;PMS5003;35306;53.458;-1.990;2022-07-01T07:04:39;4;4;
49434;PMS5003;35306;53.458;-1.990;2022-07-01T07:07:08;6;6;
49434;PMS5003;35306;53.458;-1.990;2022-07-01T07:09:35;2;2;
49434;PMS5003;35306;53.458;-1.990;2022-07-01T07:12:04;3;2;
49434;PMS5003;35306;53.458;-1.990;2022-07-01T07:14:32;6;6;
49434;PMS5003;35306;53.458;-1.990;2022-07-01T07:17:00;13;10;
49434;PMS5003;35306;53.458;-1.990;2022-07-01T07:19:29;5;5;
49434;PMS5003;35306;53.458;-1.990;2022-07-01T07:21:56;4;4;
49434;PMS5003;35306;53.458;-1.990;2022-07-01T07:24:25;5;5;
49434;PMS5003;35306;53.458;-1.990;2022-07-01T07:26:52;5;5;
49434;PMS5003;35306;53.458;-1.990;2022-07-01T07:29:20;4;3;
49434;PMS5003;35306;53.458;-1.990;2022-07-01T07:31:48;7;6;
49434;PMS5003;35306;53.458;-1.990;2022-07-01T07:34:15;6;5;
49434;PMS5003;35306;53.458;-1.990;2022-07-01T07:36:43;3;3;
49434;PMS5003;35306;53.458;-1.990;2022-07-01T07:39:10;6;4;
49434;PMS5003;35306;53.458;-1.990;2022-07-01T07:41:38;6;5;
49434;PMS5003;35306;53.458;-1.990;2022-07-01T07:44:06;6;5;
49434;PMS5003;35306;53.458;-1.990;2022-07-01T07:46:34;4;4;
49434;PMS5003;35306;53.458;-1.990;2022-07-01T07:49:02;6;6;
49434;PMS5003;35306;53.458;-1.990;2022-07-01T07:51:30;5;5;
49434;PMS5003;35306;53.458;-1.990;2022-07-01T07:53:59;5;5;
49434;PMS5003;35306;53.458;-1.990;2022-07-01T07:56:28;6;5;
49434;PMS5003;35306;53.458;-1.990;2022-07-01T07:58:58;5;5;
49434;PMS5003;35306;53.458;-1.990;2022-07-01T08:01:26;5;5;
49434;PMS5003;35306;53.458;-1.990;2022-07-01T08:03:54;6;6;
49434;PMS5003;35306;53.458;-1.990;2022-07-01T08:06:22;5;4;
49434;PMS5003;35306;53.458;-1.990;2022-07-01T08:08:50;5;5;
49434;PMS5003;35306;53.458;-1.990;2022-07-01T08:11:18;8;8;
49434;PMS5003;35306;53.458;-1.990;2022-07-01T08:13:46;9;9;
49434;PMS5003;35306;53.458;-1.990;2022-07-01T08:16:14;7;7;
49434;PMS5003;35306;53.458;-1.990;2022-07-01T08:18:42;6;6;
49434;PMS5003;35306;53.458;-1.990;2022-07-01T08:21:09;7;7;
49434;PMS5003;35306;53.458;-1.990;2022-07-01T08:23:37;7;7;
49434;PMS5003;35306;53.458;-1.990;2022-07-01T08:26:04;7;5;
49434;PMS5003;35306;53.458;-1.990;2022-07-01T08:28:32;7;6;
49434;PMS5003;35306;53.458;-1.990;2022-07-01T08:31:00;6;6;
49434;PMS5003;35306;53.458;-1.990;2022-07-01T08:33:28;7;7;
49434;PMS5003;35306;53.458;-1.990;2022-07-01T08:35:56;7;6;
49434;PMS5003;35306;53.458;-1.990;2022-07-01T08:38:24;8;8;
49434;PMS5003;35306;53.458;-1.990;2022-07-01T08:40:52;7;7;
49434;PMS5003;35306;53.458;-1.990;2022-07-01T08:43:21;6;6;
49434;PMS5003;35306;53.458;-1.990;2022-07-01T08:45:49;8;8;
49434;PMS5003;35306;53.458;-1.990;2022-07-01T08:48:18;8;8;
49434;PMS5003;35306;53.458;-1.990;2022-07-01T08:50:46;9;7;
49434;PMS5003;35306;53.458;-1.990;2022-07-01T08:53:20;6;6;
49434;PMS5003;35306;53.458;-1.990;2022-07-01T08:55:48;9;7;
49434;PMS5003;35306;53.458;-1.990;2022-07-01T08:58:15;6;6;
49434;PMS5003;35306;53.458;-1.990;2022-07-01T09:00:43;6;6;
49434;PMS5003;35306;53.458;-1.990;2022-07-01T09:03:11;7;6;
49434;PMS5003;35306;53.458;-1.990;2022-07-01T09:05:39;10;9;
49434;PMS5003;35306;53.458;-1.990;2022-07-01T09:08:16;7;7;
49434;PMS5003;35306;53.458;-1.990;2022-07-01T09:10:45;5;4;
49434;PMS5003;35306;53.458;-1.990;2022-07-01T09:13:13;8;6;
49434;PMS5003;35306;53.458;-1.990;2022-07-01T09:15:42;5;5;
49434;PMS5003;35306;53.458;-1.990;2022-07-01T09:18:10;8;8;
49434;PMS5003;35306;53.458;-1.990;2022-07-01T09:20:45;5;5;
49434;PMS5003;35306;53.458;-1.990;2022-07-01T09:23:15;5;5;
49434;PMS5003;35306;53.458;-1.990;2022-07-01T09:25:44;4;4;
49434;PMS5003;35306;53.458;-1.990;2022-07-01T09:28:15;6;6;
49434;PMS5003;35306;53.458;-1.990;2022-07-01T09:30:45;6;5;
49434;PMS5003;35306;53.458;-1.990;2022-07-01T09:33:15;5;5;
49434;PMS5003;35306;53.458;-1.990;2022-07-01T09:35:45;5;5;
49434;PMS5003;35306;53.458;-1.990;2022-07-01T09:38:14;5;5;
49434;PMS5003;35306;53.458;-1.990;2022-07-01T09:40:45;6;6;
49434;PMS5003;35306;53.458;-1.990;2022-07-01T09:43:19;6;5;
49434;PMS5003;35306;53.458;-1.990;2022-07-01T09:45:49;8;8;
49434;PMS5003;35306;53.458;-1.990;2022-07-01T09:48:21;4;4;
49434;PMS5003;35306;53.458;-1.990;2022-07-01T09:50:50;4;4;
49434;PMS5003;35306;53.458;-1.990;2022-07-01T09:53:18;6;5;
49434;PMS5003;35306;53.458;-1.990;2022-07-01T09:55:47;5;5;
49434;PMS5003;35306;53.458;-1.990;2022-07-01T09:58:15;3;3;
49434;PMS5003;35306;53.458;-1.990;2022-07-01T10:00:43;6;6;
49434;PMS5003;35306;53.458;-1.990;2022-07-01T10:03:12;8;8;
49434;PMS5003;35306;53.458;-1.990;2022-07-01T10:05:48;8;8;
49434;PMS5003;35306;53.458;-1.990;2022-07-01T10:08:23;10;8;
49434;PMS5003;35306;53.458;-1.990;2022-07-01T10:11:17;6;6;
49434;PMS5003;35306;53.458;-1.990;2022-07-01T10:14:10;9;8;
49434;PMS5003;35306;53.458;-1.990;2022-07-01T10:16:46;9;7;
49434;PMS5003;35306;53.458;-1.990;2022-07-01T10:19:26;6;6;
49434;PMS5003;35306;53.458;-1.990;2022-07-01T10:21:56;7;4;
49434;PMS5003;35306;53.458;-1.990;2022-07-01T10:24:28;7;6;
49434;PMS5003;35306;53.458;-1.990;2022-07-01T10:26:58;8;6;
49434;PMS5003;35306;53.458;-1.990;2022-07-01T10:29:28;5;4;
49434;PMS5003;35306;53.458;-1.990;2022-07-01T10:32:01;4;4;
49434;PMS5003;35306;53.458;-1.990;2022-07-01T10:34:35;3;3;
49434;PMS5003;35306;53.458;-1.990;2022-07-01T10:37:05;4;4;
49434;PMS5003;35306;53.458;-1.990;2022-07-01T10:39:54;5;5;
49434;PMS5003;35306;53.458;-1.990;2022-07-01T10:42:27;5;5;
49434;PMS5003;35306;53.458;-1.990;2022-07-01T10:45:01;4;4;
49434;PMS5003;35306;53.458;-1.990;2022-07-01T10:47:45;5;5;
49434;PMS5003;35306;53.458;-1.990;2022-07-01T10:50:12;4;3;
49434;PMS5003;35306;53.458;-1.990;2022-07-01T10:52:58;5;4;
49434;PMS5003;35306;53.458;-1.990;2022-07-01T10:55:35;8;6;
49434;PMS5003;35306;53.458;-1.990;2022-07-01T10:58:03;3;3;
49434;PMS5003;35306;53.458;-1.990;2022-07-01T11:00:32;4;4;
49434;PMS5003;35306;53.458;-1.990;2022-07-01T11:03:34;3;3;
49434;PMS5003;35306;53.458;-1.990;2022-07-01T11:06:03;4;4;
49434;PMS5003;35306;53.458;-1.990;2022-07-01T11:08:30;3;3;
49434;PMS5003;35306;53.458;-1.990;2022-07-01T11:10:59;5;5;
49434;PMS5003;35306;53.458;-1.990;2022-07-01T11:13:28;8;7;
49434;PMS5003;35306;53.458;-1.990;2022-07-01T11:15:56;15;12;
49434;PMS5003;35306;53.458;-1.990;2022-07-01T11:18:23;4;3;
49434;PMS5003;35306;53.458;-1.990;2022-07-01T11:20:51;5;5;
49434;PMS5003;35306;53.458;-1.990;2022-07-01T11:23:20;3;3;
49434;PMS5003;35306;53.458;-1.990;2022-07-01T11:25:48;6;4;
49434;PMS5003;35306;53.458;-1.990;2022-07-01T11:28:15;3;3;
49434;PMS5003;35306;53.458;-1.990;2022-07-01T11:30:43;3;3;
49434;PMS5003;35306;53.458;-1.990;2022-07-01T11:33:10;3;2;
49434;PMS5003;35306;53.458;-1.990;2022-07-01T11:35:38;2;2;
49434;PMS5003;35306;53.458;-1.990;2022-07-01T11:38:10;11;9;
49434;PMS5003;35306;53.458;-1.990;2022-07-01T11:40:38;6;6;
49434;PMS5003;35306;53.458;-1.990;2022-07-01T11:43:17;6;4;
49434;PMS5003;35306;53.458;-1.990;2022-07-01T11:45:45;4;4;
49434;PMS5003;35306;53.458;-1.990;2022-07-01T11:48:15;6;6;
49434;PMS5003;35306;53.458;-1.990;2022-07-01T11:50:56;7;6;
49434;PMS5003;35306;53.458;-1.990;2022-07-01T11:53:25;9;7;
49434;PMS5003;35306;53.458;-1.990;2022-07-01T11:55:52;8;8;
49434;PMS5003;35306;53.458;-1.990;2022-07-01T11:58:20;8;8;
49434;PMS5003;35306;53.458;-1.990;2022-07-01T12:00:47;9;9;
49434;PMS5003;35306;53.458;-1.990;2022-07-01T12:03:28;9;6;
49434;PMS5003;35306;53.458;-1.990;2022-07-01T12:05:56;7;7;
49434;PMS5003;35306;53.458;-1.990;2022-07-01T12:08:25;4;4;
49434;PMS5003;35306;53.458;-1.990;2022-07-01T12:10:52;5;5;
49434;PMS5003;35306;53.458;-1.990;2022-07-01T12:13:20;7;6;
49434;PMS5003;35306;53.458;-1.990;2022-07-01T12:15:48;3;3;
49434;PMS5003;35306;53.458;-1.990;2022-07-01T12:18:16;4;4;
49434;PMS5003;35306;53.458;-1.990;2022-07-01T12:20:52;5;4;
49434;PMS5003;35306;53.458;-1.990;2022-07-01T12:23:20;12;11;
49434;PMS5003;35306;53.458;-1.990;2022-07-01T12:25:48;5;5;
49434;PMS5003;35306;53.458;-1.990;2022-07-01T12:28:36;9;9;
49434;PMS5003;35306;53.458;-1.990;2022-07-01T12:31:05;8;8;
49434;PMS5003;35306;53.458;-1.990;2022-07-01T12:33:34;10;10;
49434;PMS5003;35306;53.458;-1.990;2022-07-01T12:36:03;14;13;
49434;PMS5003;35306;53.458;-1.990;2022-07-01T12:38:31;10;10;
49434;PMS5003;35306;53.458;-1.990;2022-07-01T12:40:59;7;7;
49434;PMS5003;35306;53.458;-1.990;2022-07-01T12:43:27;10;10;
49434;PMS5003;35306;53.458;-1.990;2022-07-01T12:45:57;6;5;
49434;PMS5003;35306;53.458;-1.990;2022-07-01T12:48:25;11;10;
49434;PMS5003;35306;53.458;-1.990;2022-07-01T12:50:53;9;7;
49434;PMS5003;35306;53.458;-1.990;2022-07-01T12:53:23;9;9;
49434;PMS5003;35306;53.458;-1.990;2022-07-01T12:55:53;10;9;
49434;PMS5003;35306;53.458;-1.990;2022-07-01T12:58:24;8;8;
49434;PMS5003;35306;53.458;-1.990;2022-07-01T13:00:53;8;6;
49434;PMS5003;35306;53.458;-1.990;2022-07-01T13:03:23;6;6;
49434;PMS5003;35306;53.458;-1.990;2022-07-01T13:05:52;8;8;
49434;PMS5003;35306;53.458;-1.990;2022-07-01T13:08:21;10;9;
49434;PMS5003;35306;53.458;-1.990;2022-07-01T13:10:48;9;8;
49434;PMS5003;35306;53.458;-1.990;2022-07-01T13:13:16;7;7;
49434;PMS5003;35306;53.458;-1.990;2022-07-01T13:15:43;11;11;
49434;PMS5003;35306;53.458;-1.990;2022-07-01T13:18:11;8;8;
49434;PMS5003;35306;53.458;-1.990;2022-07-01T13:20:38;8;8;
49434;PMS5003;35306;53.458;-1.990;2022-07-01T13:23:06;8;6;
49434;PMS5003;35306;53.458;-1.990;2022-07-01T13:25:33;9;9;
49434;PMS5003;35306;53.458;-1.990;2022-07-01T13:28:01;7;7;
49434;PMS5003;35306;53.458;-1.990;2022-07-01T13:30:29;8;8;
49434;PMS5003;35306;53.458;-1.990;2022-07-01T13:32:56;9;9;
49434;PMS5003;35306;53.458;-1.990;2022-07-01T13:35:23;8;7;
49434;PMS5003;35306;53.458;-1.990;2022-07-01T13:37:51;6;6;
49434;PMS5003;35306;53.458;-1.990;2022-07-01T13:40:19;7;5;
49434;PMS5003;35306;53.458;-1.990;2022-07-01T13:42:47;7;6;
49434;PMS5003;35306;53.458;-1.990;2022-07-01T13:45:16;5;5;
49434;PMS5003;35306;53.458;-1.990;2022-07-01T13:47:44;2;2;
49434;PMS5003;35306;53.458;-1.990;2022-07-01T13:50:13;2;2;
49434;PMS5003;35306;53.458;-1.990;2022-07-01T13:52:45;7;5;
49434;PMS5003;35306;53.458;-1.990;2022-07-01T13:55:14;1;1;
49434;PMS5003;35306;53.458;-1.990;2022-07-01T13:57:43;3;3;
49434;PMS5003;35306;53.458;-1.990;2022-07-01T14:00:12;3;3;
49434;PMS5003;35306;53.458;-1.990;2022-07-01T14:02:45;3;3;
49434;PMS5003;35306;53.458;-1.990;2022-07-01T14:05:13;4;4;
49434;PMS5003;35306;53.458;-1.990;2022-07-01T14:07:42;4;2;
49434;PMS5003;35306;53.458;-1.990;2022-07-01T14:10:09;6;4;
49434;PMS5003;35306;53.458;-1.990;2022-07-01T14:12:37;8;8;
49434;PMS5003;35306;53.458;-1.990;2022-07-01T14:15:06;4;4;
49434;PMS5003;35306;53.458;-1.990;2022-07-01T14:17:34;6;6;
49434;PMS5003;35306;53.458;-1.990;2022-07-01T14:20:03;4;4;
49434;PMS5003;35306;53.458;-1.990;2022-07-01T14:22:32;20;18;
49434;PMS5003;35306;53.458;-1.990;2022-07-01T14:24:59;5;5;
49434;PMS5003;35306;53.458;-1.990;2022-07-01T14:27:28;9;7;
49434;PMS5003;35306;53.458;-1.990;2022-07-01T14:29:57;5;5;
49434;PMS5003;35306;53.458;-1.990;2022-07-01T14:32:25;9;9;
49434;PMS5003;35306;53.458;-1.990;2022-07-01T14:34:53;7;7;
49434;PMS5003;35306;53.458;-1.990;2022-07-01T14:37:21;5;5;
49434;PMS5003;35306;53.458;-1.990;2022-07-01T14:39:50;5;5;
49434;PMS5003;35306;53.458;-1.990;2022-07-01T14:42:17;5;4;
49434;PMS5003;35306;53.458;-1.990;2022-07-01T14:44:45;6;5;
49434;PMS5003;35306;53.458;-1.990;2022-07-01T14:47:13;2;2;
49434;PMS5003;35306;53.458;-1.990;2022-07-01T14:49:46;4;4;
49434;PMS5003;35306;53.458;-1.990;2022-07-01T14:52:14;2;2;
49434;PMS5003;35306;53.458;-1.990;2022-07-01T14:54:42;7;6;
49434;PMS5003;35306;53.458;-1.990;2022-07-01T14:57:10;1;1;
49434;PMS5003;35306;53.458;-1.990;2022-07-01T14:59:39;3;3;
49434;PMS5003;35306;53.458;-1.990;2022-07-01T15:02:07;5;5;
49434;PMS5003;35306;53.458;-1.990;2022-07-01T15:04:41;3;3;
49434;PMS5003;35306;53.458;-1.990;2022-07-01T15:07:09;3;3;
49434;PMS5003;35306;53.458;-1.990;2022-07-01T15:09:37;5;5;
49434;PMS5003;35306;53.458;-1.990;2022-07-01T15:12:04;3;3;
49434;PMS5003;35306;53.458;-1.990;2022-07-01T15:14:33;1;1;
49434;PMS5003;35306;53.458;-1.990;2022-07-01T15:17:00;6;5;
49434;PMS5003;35306;53.458;-1.990;2022-07-01T15:19:28;3;3;
49434;PMS5003;35306;53.458;-1.990;2022-07-01T15:21:56;3;3;
49434;PMS5003;35306;53.458;-1.990;2022-07-01T15:24:24;3;3;
49434;PMS5003;35306;53.458;-1.990;2022-07-01T15:26:52;2;2;
49434;PMS5003;35306;53.458;-1.990;2022-07-01T15:29:19;2;2;
49434;PMS5003;35306;53.458;-1.990;2022-07-01T15:31:47;2;2;
49434;PMS5003;35306;53.458;-1.990;2022-07-01T15:34:15;5;5;
49434;PMS5003;35306;53.458;-1.990;2022-07-01T15:36:43;5;4;
49434;PMS5003;35306;53.458;-1.990;2022-07-01T15:39:10;4;4;
49434;PMS5003;35306;53.458;-1.990;2022-07-01T15:41:38;3;3;
49434;PMS5003;35306;53.458;-1.990;2022-07-01T15:44:07;2;2;
49434;PMS5003;35306;53.458;-1.990;2022-07-01T15:46:34;3;3;
49434;PMS5003;35306;53.458;-1.990;2022-07-01T15:49:02;3;3;
49434;PMS5003;35306;53.458;-1.990;2022-07-01T15:51:30;3;3;
49434;PMS5003;35306;53.458;-1.990;2022-07-01T15:53:58;2;2;
49434;PMS5003;35306;53.458;-1.990;2022-07-01T15:56:25;4;2;
49434;PMS5003;35306;53.458;-1.990;2022-07-01T15:58:53;3;3;
49434;PMS5003;35306;53.458;-1.990;2022-07-01T16:01:20;3;3;
49434;PMS5003;35306;53.458;-1.990;2022-07-01T16:03:48;3;3;
49434;PMS5003;35306;53.458;-1.990;2022-07-01T16:06:18;4;4;
49434;PMS5003;35306;53.458;-1.990;2022-07-01T16:08:46;3;3;
49434;PMS5003;35306;53.458;-1.990;2022-07-01T16:11:17;3;3;
49434;PMS5003;35306;53.458;-1.990;2022-07-01T16:13:46;3;2;
49434;PMS5003;35306;53.458;-1.990;2022-07-01T16:16:16;3;3;
49434;PMS5003;35306;53.458;-1.990;2022-07-01T16:18:48;2;2;
49434;PMS5003;35306;53.458;-1.990;2022-07-01T16:21:17;1;1;
49434;PMS5003;35306;53.458;-1.990;2022-07-01T16:23:46;3;3;
49434;PMS5003;35306;53.458;-1.990;2022-07-01T16:26:16;2;2;
49434;PMS5003;35306;53.458;-1.990;2022-07-01T16:28:47;2;2;
49434;PMS5003;35306;53.458;-1.990;2022-07-01T16:31:16;4;4;
49434;PMS5003;35306;53.458;-1.990;2022-07-01T16:33:44;2;2;
49434;PMS5003;35306;53.458;-1.990;2022-07-01T16:36:14;2;2;
49434;PMS5003;35306;53.458;-1.990;2022-07-01T16:38:47;1;1;